Time;durP1;ratioP1;P1;durP2;ratioP2;P2;SDS_P1;SDS_P2;PMS_P1;PMS_P2;Temp;Humidity;BMP_temperature;BMP_pressure;BME280_temperature;BME280_humidity;BME280_pressure;Samples;Min_cycle;Max_cycle;Signal;HPM_P1;HPM_P2
2021/06/27 00:01:22;;;;;;;3.67;3.40;;;22.10;34.80;;;;;;10481764;28;20307;-76
2021/06/27 00:06:25;;;;;;;4.67;3.50;;;22.00;35.40;;;;;;10475267;28;20244;-76
2021/06/27 00:11:29;;;;;;;4.07;3.77;;;21.90;34.90;;;;;;10478784;28;20235;-76
2021/06/27 00:16:34;;;;;;;3.83;3.20;;;21.90;35.00;;;;;;10477152;28;20239;-76
2021/06/27 00:21:38;;;;;;;4.37;3.07;;;21.90;35.60;;;;;;10484088;28;20342;-77
2021/06/27 00:26:41;;;;;;;4.47;2.93;;;21.80;35.30;;;;;;10482705;28;20239;-77
2021/06/27 00:31:46;;;;;;;3.90;2.37;;;21.80;35.30;;;;;;10490945;28;20604;-76
2021/06/27 00:36:49;;;;;;;3.70;3.20;;;21.80;35.60;;;;;;10481292;28;20225;-77
2021/06/27 00:41:52;;;;;;;5.20;3.30;;;21.70;35.40;;;;;;10486144;28;20231;-76
2021/06/27 00:46:57;;;;;;;3.57;2.50;;;21.70;35.40;;;;;;10479467;28;20221;-76
2021/06/27 00:52:00;;;;;;;3.37;3.07;;;21.60;35.80;;;;;;10480839;28;20369;-76
2021/06/27 00:57:05;;;;;;;3.70;3.40;;;21.60;35.50;;;;;;10484722;22;20339;-82
2021/06/27 01:02:09;;;;;;;2.93;2.70;;;21.50;36.10;;;;;;10449458;28;20232;-82
2021/06/27 01:07:12;;;;;;;3.37;3.10;;;21.50;36.20;;;;;;10405450;28;20225;-83
2021/06/27 01:12:16;;;;;;;6.17;3.33;;;21.40;35.80;;;;;;10411320;28;20222;-83
2021/06/27 01:17:26;;;;;;;4.87;3.30;;;21.40;35.80;;;;;;10405407;28;20702;-83
2021/06/27 01:22:31;;;;;;;4.10;3.47;;;21.30;36.20;;;;;;10412725;28;20319;-83
2021/06/27 01:27:34;;;;;;;3.90;3.17;;;21.30;36.20;;;;;;10410686;28;20236;-83
2021/06/27 01:32:39;;;;;;;6.13;3.43;;;21.20;36.00;;;;;;10408070;28;20234;-83
2021/06/27 01:37:45;;;;;;;3.47;3.17;;;21.10;36.40;;;;;;10413370;28;20226;-83
2021/06/27 01:42:50;;;;;;;3.90;3.27;;;21.10;36.70;;;;;;10411113;28;20248;-83
2021/06/27 01:47:57;;;;;;;3.53;3.10;;;21.00;36.30;;;;;;10408968;28;20221;-83
2021/06/27 01:53:03;;;;;;;3.37;3.07;;;21.00;38.10;;;;;;10404702;28;20234;-83
2021/06/27 01:58:06;;;;;;;4.27;3.20;;;20.90;36.80;;;;;;10399145;28;20218;-83
2021/06/27 02:03:17;;;;;;;4.00;3.70;;;20.90;36.40;;;;;;10416092;28;20578;-83
2021/06/27 02:08:21;;;;;;;5.60;4.00;;;20.80;37.20;;;;;;10412356;28;20221;-83
2021/06/27 02:13:24;;;;;;;4.10;3.80;;;20.80;37.20;;;;;;10404517;28;20248;-83
2021/06/27 02:18:30;;;;;;;3.87;3.57;;;20.70;36.60;;;;;;10402106;28;20308;-83
2021/06/27 02:23:35;;;;;;;3.43;3.13;;;20.60;37.00;;;;;;10402450;28;20233;-83
2021/06/27 02:28:39;;;;;;;3.50;3.00;;;20.50;36.90;;;;;;10405709;28;20229;-83
2021/06/27 02:33:43;;;;;;;2.40;2.20;;;20.50;36.90;;;;;;10412696;28;20601;-83
2021/06/27 02:38:49;;;;;;;3.20;2.90;;;20.40;36.90;;;;;;10411446;28;20225;-83
2021/06/27 02:43:52;;;;;;;2.73;2.40;;;20.40;36.90;;;;;;10409899;28;20226;-83
2021/06/27 02:48:55;;;;;;;2.07;1.97;;;20.30;36.80;;;;;;10406743;28;20226;-83
2021/06/27 02:53:59;;;;;;;1.70;1.60;;;20.30;36.80;;;;;;10424957;28;20232;-83
2021/06/27 02:59:02;;;;;;;3.00;2.20;;;20.20;37.00;;;;;;10419751;28;20221;-82
2021/06/27 03:04:06;;;;;;;2.50;2.30;;;20.20;36.70;;;;;;10419362;28;20579;-83
2021/06/27 03:09:11;;;;;;;3.00;2.43;;;20.20;36.70;;;;;;10411756;28;20721;-83
2021/06/27 03:14:14;;;;;;;2.57;2.30;;;20.20;37.10;;;;;;10413389;28;20591;-83
2021/06/27 03:19:17;;;;;;;4.70;3.20;;;20.20;36.70;;;;;;10414583;28;20592;-82
2021/06/27 03:24:22;;;;;;;3.43;2.73;;;20.20;36.70;;;;;;10412165;28;20599;-81
2021/06/27 03:29:25;;;;;;;4.00;3.37;;;20.10;37.00;;;;;;10419015;28;20601;-81
2021/06/27 03:34:28;;;;;;;2.93;2.67;;;20.00;36.90;;;;;;10413025;28;20236;-81
2021/06/27 03:39:33;;;;;;;3.10;2.90;;;19.90;36.80;;;;;;10415751;28;20228;-81
2021/06/27 03:44:38;;;;;;;3.47;2.50;;;19.90;37.50;;;;;;10412524;28;20259;-81
2021/06/27 03:49:41;;;;;;;2.13;1.93;;;19.80;37.20;;;;;;10412483;28;20737;-81
2021/06/27 03:54:45;;;;;;;2.90;1.77;;;19.80;37.30;;;;;;10412672;28;20233;-81
2021/06/27 03:59:49;;;;;;;1.93;1.60;;;19.80;38.00;;;;;;10418072;28;20225;-81
2021/06/27 04:04:52;;;;;;;1.80;1.70;;;19.80;37.50;;;;;;10421782;28;20236;-81
2021/06/27 04:09:56;;;;;;;2.00;1.90;;;19.80;37.50;;;;;;10409195;28;20220;-81
2021/06/27 04:15:00;;;;;;;2.50;2.30;;;19.80;38.00;;;;;;10417576;28;20229;-81
2021/06/27 04:20:05;;;;;;;2.30;2.10;;;19.70;37.70;;;;;;10409357;28;20225;-81
2021/06/27 04:25:10;;;;;;;2.40;2.20;;;19.60;38.30;;;;;;10414491;28;20244;-81
2021/06/27 04:30:14;;;;;;;2.70;2.60;;;19.60;38.70;;;;;;10407766;28;20221;-81
2021/06/27 04:35:17;;;;;;;6.93;4.63;;;19.60;38.40;;;;;;10406262;28;20229;-81
2021/06/27 04:40:22;;;;;;;5.03;4.43;;;19.60;38.80;;;;;;10411062;28;20218;-81
2021/06/27 04:45:25;;;;;;;5.20;4.80;;;19.60;39.70;;;;;;10406540;28;20687;-81
2021/06/27 04:50:29;;;;;;;5.60;5.20;;;19.60;39.40;;;;;;10408224;28;20248;-81
2021/06/27 04:55:34;;;;;;;4.80;4.50;;;19.60;39.90;;;;;;10410466;28;20256;-82
2021/06/27 05:00:37;;;;;;;5.53;5.13;;;19.70;40.60;;;;;;10410735;28;20234;-82
2021/06/27 05:05:41;;;;;;;5.83;5.33;;;19.80;40.40;;;;;;10404591;28;20225;-82
2021/06/27 05:10:45;;;;;;;6.40;5.80;;;19.90;40.60;;;;;;10410764;28;20224;-82
2021/06/27 05:15:49;;;;;;;5.17;4.77;;;20.00;41.70;;;;;;10412392;28;20229;-82
2021/06/27 05:20:52;;;;;;;5.93;5.50;;;20.10;41.00;;;;;;10408640;28;20221;-83
2021/06/27 05:25:57;;;;;;;6.30;5.80;;;20.30;41.60;;;;;;10413199;28;20230;-83
2021/06/27 05:31:00;;;;;;;5.50;5.10;;;20.40;42.20;;;;;;10411824;28;20259;-83
2021/06/27 05:36:05;;;;;;;5.77;5.37;;;20.60;41.30;;;;;;10410041;28;20218;-79
2021/06/27 05:41:09;;;;;;;5.07;4.77;;;20.70;41.70;;;;;;10411855;28;20214;-79
2021/06/27 05:46:13;;;;;;;5.93;5.53;;;20.90;41.90;;;;;;10403868;28;20228;-83
2021/06/27 05:51:16;;;;;;;5.80;5.40;;;20.90;41.40;;;;;;10410919;28;20258;-83
2021/06/27 05:56:21;;;;;;;6.70;6.10;;;21.10;41.60;;;;;;10411209;28;20249;-79
2021/06/27 06:01:24;;;;;;;6.07;5.60;;;21.20;42.30;;;;;;10405760;28;20234;-84
2021/06/27 06:06:27;;;;;;;6.43;5.97;;;21.30;41.60;;;;;;10417354;28;20245;-84
2021/06/27 06:11:32;;;;;;;6.60;6.10;;;21.40;41.70;;;;;;10407752;28;20225;-84
2021/06/27 06:16:35;;;;;;;7.23;6.50;;;21.50;42.30;;;;;;10409125;28;20229;-84
2021/06/27 06:21:39;;;;;;;6.87;6.27;;;21.50;41.60;;;;;;10401212;28;20701;-85
2021/06/27 06:26:44;;;;;;;6.47;5.97;;;21.60;41.80;;;;;;10418263;28;20636;-85
2021/06/27 06:31:47;;;;;;;6.53;5.93;;;21.70;42.60;;;;;;10424383;28;20222;-84
2021/06/27 06:36:51;;;;;;;6.23;5.70;;;21.80;42.00;;;;;;10417284;28;20728;-84
2021/06/27 06:41:55;;;;;;;6.20;5.70;;;21.90;42.00;;;;;;10414484;28;20224;-85
2021/06/27 06:46:58;;;;;;;6.13;5.63;;;22.10;42.50;;;;;;10423824;28;20893;-84
2021/06/27 06:52:02;;;;;;;6.40;5.90;;;22.20;42.00;;;;;;10416814;28;20229;-82
2021/06/27 06:57:07;;;;;;;5.93;5.53;;;22.30;42.40;;;;;;10409914;28;20220;-79
2021/06/27 07:02:10;;;;;;;5.23;4.83;;;22.50;42.80;;;;;;10417654;28;20222;-79
2021/06/27 07:07:13;;;;;;;6.10;5.50;;;22.60;41.90;;;;;;10408528;28;20232;-80
2021/06/27 07:12:18;;;;;;;5.50;5.10;;;22.80;41.70;;;;;;10410947;28;20222;-85
2021/06/27 07:17:21;;;;;;;6.13;5.47;;;22.90;41.70;;;;;;10410568;28;20226;-85
2021/06/27 07:22:25;;;;;;;5.80;5.40;;;23.10;41.40;;;;;;10403493;28;20284;-84
2021/06/27 07:27:29;;;;;;;6.33;5.73;;;23.40;41.70;;;;;;10404570;28;20593;-84
2021/06/27 07:32:33;;;;;;;5.87;5.40;;;23.50;41.50;;;;;;10413226;28;20253;-80
2021/06/27 07:37:36;;;;;;;5.40;5.10;;;23.70;41.30;;;;;;10398847;28;20865;-81
2021/06/27 07:42:40;;;;;;;5.67;5.27;;;24.00;41.30;;;;;;10403646;28;20604;-76
2021/06/27 07:47:47;;;;;;;5.10;4.60;;;24.20;41.40;;;;;;10395315;28;20252;-82
2021/06/27 07:52:50;;;;;;;5.27;4.80;;;24.40;40.80;;;;;;10395764;28;20699;-80
2021/06/27 07:57:55;;;;;;;5.37;5.07;;;24.60;40.50;;;;;;10405870;28;20228;-80
2021/06/27 08:02:59;;;;;;;5.40;5.00;;;24.80;40.70;;;;;;10404925;28;20600;-81
2021/06/27 08:08:02;;;;;;;5.13;4.70;;;25.00;40.90;;;;;;10406908;28;20608;-80
2021/06/27 08:13:06;;;;;;;5.73;5.33;;;25.20;40.90;;;;;;10409819;28;20225;-77
2021/06/27 08:18:10;;;;;;;5.50;5.10;;;25.40;40.10;;;;;;10403997;28;20321;-78
2021/06/27 08:23:14;;;;;;;5.60;5.13;;;25.70;39.70;;;;;;10395650;28;20218;-78
2021/06/27 08:28:19;;;;;;;5.50;5.00;;;25.90;39.50;;;;;;10405517;28;20221;-78
2021/06/27 08:33:22;;;;;;;4.90;4.60;;;26.10;39.00;;;;;;10405103;28;20231;-78
2021/06/27 08:38:25;;;;;;;4.50;4.20;;;26.40;39.20;;;;;;10401886;28;20237;-77
2021/06/27 08:43:32;;;;;;;4.63;4.33;;;26.60;38.90;;;;;;10404455;28;20229;-78
2021/06/27 08:48:38;;;;;;;4.20;3.90;;;26.80;38.10;;;;;;10411494;28;20228;-77
2021/06/27 08:53:43;;;;;;;3.67;3.47;;;27.00;37.80;;;;;;10404655;28;20240;-77
2021/06/27 08:58:47;;;;;;;3.63;3.43;;;27.20;37.20;;;;;;10401891;28;20225;-77
2021/06/27 09:03:51;;;;;;;3.80;3.60;;;27.40;37.00;;;;;;10399350;28;20225;-77
2021/06/27 09:09:17;;;;;;;3.60;3.40;;;27.60;36.90;;;;;;10407079;28;20228;-77
2021/06/27 09:14:39;;;;;;;3.60;3.40;;;27.90;36.40;;;;;;10400535;28;20702;-77
2021/06/27 09:20:15;;;;;;;3.80;3.50;;;28.10;35.80;;;;;;10400808;28;20690;-79
2021/06/27 09:25:25;;;;;;;3.53;3.23;;;28.30;35.50;;;;;;10312170;28;20728;-79
2021/06/27 09:30:32;;;;;;;3.07;2.97;;;28.40;33.70;;;;;;10396735;28;20229;-80
2021/06/27 09:35:53;;;;;;;3.33;3.13;;;28.60;34.30;;;;;;10412125;28;20283;-79
2021/06/27 09:41:00;;;;;;;3.33;3.13;;;28.70;33.20;;;;;;10410241;28;20213;-80
2021/06/27 09:46:12;;;;;;;3.00;2.83;;;28.80;32.50;;;;;;10417242;28;20608;-79
2021/06/27 09:51:16;;;;;;;3.30;3.10;;;29.00;32.40;;;;;;10405959;28;20222;-79
2021/06/27 09:56:21;;;;;;;3.10;2.90;;;29.10;33.30;;;;;;10406174;28;20230;-79
2021/06/27 10:01:26;;;;;;;3.20;3.00;;;29.10;32.80;;;;;;10416561;28;20233;-79
2021/06/27 10:06:31;;;;;;;3.10;2.80;;;29.30;31.40;;;;;;10406882;28;20246;-79
2021/06/27 10:11:34;;;;;;;3.17;2.97;;;29.40;32.00;;;;;;10413763;28;20221;-79
2021/06/27 10:16:40;;;;;;;3.10;2.90;;;29.50;32.20;;;;;;10424027;28;20286;-79
2021/06/27 10:21:44;;;;;;;2.97;2.80;;;29.70;31.30;;;;;;10407592;28;20450;-78
2021/06/27 10:26:47;;;;;;;2.50;2.40;;;29.90;31.50;;;;;;10413007;28;20225;-78
2021/06/27 10:31:54;;;;;;;2.67;2.57;;;30.00;31.50;;;;;;10409786;28;20587;-78
2021/06/27 10:37:06;;;;;;;3.03;2.83;;;30.20;29.60;;;;;;10420430;28;20226;-78
2021/06/27 10:42:09;;;;;;;2.70;2.60;;;30.30;29.60;;;;;;10417020;28;20583;-79
2021/06/27 10:47:30;;;;;;;2.80;2.60;;;30.30;29.90;;;;;;10416846;28;20233;-78
2021/06/27 10:52:58;;;;;;;2.50;2.40;;;30.30;28.90;;;;;;10409330;28;20222;-78
2021/06/27 10:58:06;;;;;;;2.37;2.27;;;30.40;29.20;;;;;;10412784;28;20221;-78
2021/06/27 11:03:25;;;;;;;2.30;2.20;;;30.40;28.80;;;;;;10404045;28;20232;-78
2021/06/27 11:08:36;;;;;;;2.40;2.20;;;30.50;29.00;;;;;;10416108;28;20231;-78
2021/06/27 11:13:40;;;;;;;2.40;2.30;;;30.50;28.00;;;;;;10409839;28;20229;-78
2021/06/27 11:18:47;;;;;;;2.57;2.37;;;30.60;28.50;;;;;;10403123;28;20899;-79
2021/06/27 11:24:08;;;;;;;2.60;2.40;;;30.60;28.00;;;;;;10401759;28;20221;-79
2021/06/27 11:29:40;;;;;;;2.30;2.20;;;30.60;27.90;;;;;;10410453;28;20226;-78
2021/06/27 11:34:54;;;;;;;2.43;2.23;;;30.70;27.30;;;;;;10420880;28;20233;-80
2021/06/27 11:40:01;;;;;;;2.40;2.30;;;30.80;27.20;;;;;;10415958;28;20239;-79
2021/06/27 11:45:37;;;;;;;2.20;2.10;;;30.80;27.20;;;;;;10412005;28;20568;-79
2021/06/27 11:50:53;;;;;;;2.10;2.00;;;30.90;27.00;;;;;;10395686;28;20233;-77
2021/06/27 11:56:12;;;;;;;2.30;2.10;;;31.00;25.90;;;;;;10397110;28;20236;-80
2021/06/27 12:01:18;;;;;;;2.40;2.30;;;31.00;26.60;;;;;;10420315;28;20716;-81
2021/06/27 12:06:23;;;;;;;2.10;2.00;;;31.00;26.20;;;;;;10418024;28;20316;-80
2021/06/27 12:11:27;;;;;;;2.30;2.20;;;30.90;26.10;;;;;;10408417;28;20315;-80
2021/06/27 12:16:31;;;;;;;2.53;2.37;;;31.00;26.60;;;;;;10405904;28;20244;-80
2021/06/27 12:21:36;;;;;;;2.40;2.30;;;31.00;26.50;;;;;;10415135;28;20264;-79
2021/06/27 12:26:39;;;;;;;2.77;2.57;;;31.10;26.20;;;;;;10401696;28;20238;-81
2021/06/27 12:31:43;;;;;;;2.50;2.40;;;31.20;26.40;;;;;;10405750;28;20344;-82
2021/06/27 12:36:50;;;;;;;2.40;2.30;;;31.30;26.00;;;;;;10404571;28;20233;-79
2021/06/27 12:42:07;;;;;;;2.30;2.20;;;31.30;24.40;;;;;;10414675;28;20231;-76
2021/06/27 12:47:11;;;;;;;2.70;2.60;;;31.30;25.90;;;;;;10506764;22;20715;-76
2021/06/27 12:52:16;;;;;;;3.20;3.00;;;31.30;26.00;;;;;;10426192;28;22578;-76
2021/06/27 12:57:22;;;;;;;3.20;2.90;;;31.40;25.40;;;;;;10423274;28;20225;-78
2021/06/27 13:02:33;;;;;;;2.63;2.47;;;31.50;25.50;;;;;;10428023;28;20225;-76
2021/06/27 13:07:41;;;;;;;3.00;2.73;;;31.50;24.60;;;;;;10433326;28;20320;-71
2021/06/27 13:18:36;;;;;;;2.67;2.57;;;31.70;24.40;;;;;;10401253;28;20657;-76
2021/06/27 13:23:41;;;;;;;2.60;2.50;;;31.80;24.20;;;;;;10425321;28;20602;-73
2021/06/27 13:28:45;;;;;;;3.43;2.93;;;31.80;23.90;;;;;;10424019;28;20351;-73
2021/06/27 13:33:51;;;;;;;2.50;2.40;;;31.80;24.40;;;;;;10423553;28;20233;-74
2021/06/27 13:38:57;;;;;;;2.83;2.63;;;31.70;24.00;;;;;;10425632;28;20228;-74
2021/06/27 13:44:02;;;;;;;2.90;2.70;;;31.70;23.80;;;;;;10425008;28;20229;-73
2021/06/27 13:49:05;;;;;;;2.73;2.63;;;31.70;24.20;;;;;;10420986;28;20229;-73
2021/06/27 13:54:10;;;;;;;2.80;2.70;;;31.80;24.30;;;;;;10425715;28;20713;-73
2021/06/27 13:59:16;;;;;;;2.77;2.57;;;31.80;23.50;;;;;;10418760;28;20233;-74
2021/06/27 14:04:19;;;;;;;2.77;2.63;;;31.90;24.00;;;;;;10424284;28;20647;-73
2021/06/27 14:09:24;;;;;;;3.03;2.73;;;31.90;23.70;;;;;;10430084;28;20643;-73
2021/06/27 14:14:29;;;;;;;2.40;2.30;;;31.90;23.10;;;;;;10422537;28;20313;-73
2021/06/27 14:19:33;;;;;;;2.80;2.70;;;31.90;23.70;;;;;;10425844;28;20231;-76
2021/06/27 14:24:39;;;;;;;2.70;2.60;;;32.00;23.40;;;;;;10428476;28;20236;-72
2021/06/27 14:29:43;;;;;;;3.00;2.80;;;32.10;23.20;;;;;;10424040;28;20229;-80
2021/06/27 14:34:51;;;;;;;3.00;2.80;;;32.10;23.20;;;;;;10425777;28;20224;-75
2021/06/27 14:39:56;;;;;;;3.10;2.90;;;32.10;22.90;;;;;;10419186;28;20273;-80
2021/06/27 14:44:59;;;;;;;2.70;2.60;;;32.20;22.20;;;;;;10425808;28;20227;-75
2021/06/27 14:50:04;;;;;;;2.97;2.77;;;32.10;23.10;;;;;;10434672;28;20224;-75
2021/06/27 14:55:10;;;;;;;2.60;2.50;;;32.20;23.00;;;;;;10431141;28;20593;-77
2021/06/27 15:00:15;;;;;;;2.70;2.60;;;32.20;22.80;;;;;;10423033;28;20225;-77
2021/06/27 15:05:18;;;;;;;2.70;2.60;;;32.20;22.30;;;;;;10425918;28;20225;-76
2021/06/27 15:10:22;;;;;;;2.57;2.47;;;32.20;22.20;;;;;;10414963;28;20233;-77
2021/06/27 15:15:28;;;;;;;2.70;2.60;;;32.20;22.20;;;;;;10424271;28;20237;-76
2021/06/27 15:20:32;;;;;;;3.30;3.00;;;32.30;22.30;;;;;;10420145;28;20236;-75
2021/06/27 15:25:38;;;;;;;2.80;2.70;;;32.30;22.30;;;;;;10429954;28;20229;-80
2021/06/27 15:30:43;;;;;;;2.60;2.50;;;32.40;22.00;;;;;;10433300;28;20765;-80
2021/06/27 15:35:46;;;;;;;2.67;2.57;;;32.30;22.30;;;;;;10437788;28;20589;-81
2021/06/27 15:40:51;;;;;;;3.20;3.00;;;32.40;22.30;;;;;;10425264;28;20239;-80
2021/06/27 15:45:54;;;;;;;3.30;3.10;;;32.40;21.80;;;;;;10421085;28;20238;-80
2021/06/27 15:50:58;;;;;;;2.47;2.37;;;32.40;22.30;;;;;;10430569;28;20222;-75
2021/06/27 15:56:03;;;;;;;2.50;2.40;;;32.30;22.90;;;;;;10423898;28;20229;-75
2021/06/27 16:01:06;;;;;;;2.70;2.60;;;32.30;22.10;;;;;;10420659;28;20221;-75
2021/06/27 16:06:09;;;;;;;2.77;2.57;;;32.40;22.30;;;;;;10419691;28;20284;-75
2021/06/27 16:11:15;;;;;;;2.47;2.37;;;32.30;22.30;;;;;;10419605;28;20225;-79
2021/06/27 16:16:19;;;;;;;2.70;2.60;;;32.30;22.00;;;;;;10428129;28;20222;-80
2021/06/27 16:21:24;;;;;;;2.83;2.73;;;32.40;22.20;;;;;;10432928;28;20230;-81
2021/06/27 16:26:31;;;;;;;2.50;2.40;;;32.40;22.00;;;;;;10432323;28;20601;-75
2021/06/27 16:31:34;;;;;;;2.83;2.73;;;32.50;21.10;;;;;;10427162;28;20225;-75
2021/06/27 16:36:37;;;;;;;3.30;3.10;;;32.50;21.70;;;;;;10425040;28;20241;-75
2021/06/27 16:41:42;;;;;;;2.80;2.70;;;32.50;21.50;;;;;;10426930;28;20240;-72
2021/06/27 16:46:45;;;;;;;2.57;2.47;;;32.50;21.20;;;;;;10425300;28;20772;-73
2021/06/27 16:51:49;;;;;;;4.23;3.93;;;32.50;21.30;;;;;;10420226;28;20221;-72
2021/06/27 16:56:53;;;;;;;9.20;8.40;;;32.50;21.60;;;;;;10428037;28;20228;-72
2021/06/27 17:01:56;;;;;;;4.43;4.13;;;32.50;21.20;;;;;;10424001;28;20217;-74
2021/06/27 17:07:00;;;;;;;3.20;3.00;;;32.50;21.30;;;;;;10413655;28;20315;-75
2021/06/27 17:12:05;;;;;;;2.93;2.73;;;32.60;21.20;;;;;;10418075;28;20226;-75
2021/06/27 17:17:08;;;;;;;2.70;2.60;;;32.60;20.90;;;;;;10422758;28;20252;-80
2021/06/27 17:22:12;;;;;;;5.70;5.30;;;32.60;21.20;;;;;;10427481;28;20232;-79
2021/06/27 17:27:16;;;;;;;3.20;3.00;;;32.60;21.30;;;;;;10425015;28;20230;-72
2021/06/27 17:32:19;;;;;;;3.17;2.90;;;32.60;21.00;;;;;;10427382;28;20228;-81
2021/06/27 17:37:22;;;;;;;2.97;2.83;;;32.60;21.40;;;;;;10424776;28;20233;-80
2021/06/27 17:42:37;;;;;;;2.80;2.70;;;32.70;21.50;;;;;;10422894;28;20233;-75
2021/06/27 17:47:41;;;;;;;3.00;2.80;;;32.70;21.40;;;;;;10419619;28;20504;-75
2021/06/27 17:52:45;;;;;;;2.90;2.80;;;32.70;21.40;;;;;;10421954;28;20394;-75
2021/06/27 17:57:51;;;;;;;2.83;2.70;;;32.70;21.40;;;;;;10420603;28;20220;-75
2021/06/27 18:02:55;;;;;;;2.97;2.80;;;32.70;21.20;;;;;;10425103;28;20590;-76
2021/06/27 18:07:58;;;;;;;2.87;2.67;;;32.60;21.20;;;;;;10424364;28;20220;-79
2021/06/27 18:13:03;;;;;;;2.67;2.57;;;32.50;21.30;;;;;;10422980;28;20213;-76
2021/06/27 18:18:06;;;;;;;2.80;2.60;;;32.50;21.60;;;;;;10428064;28;20304;-79
2021/06/27 18:23:10;;;;;;;2.63;2.43;;;32.40;22.30;;;;;;10427369;28;20217;-75
2021/06/27 18:28:14;;;;;;;3.10;2.90;;;32.30;22.30;;;;;;10435740;28;20312;-82
2021/06/27 18:33:19;;;;;;;3.20;2.90;;;32.10;22.20;;;;;;10440321;28;20225;-82
2021/06/27 18:38:23;;;;;;;2.97;2.77;;;31.90;22.10;;;;;;10433389;28;20689;-83
2021/06/27 18:43:27;;;;;;;3.30;3.10;;;31.70;22.30;;;;;;10436096;28;20233;-84
2021/06/27 18:48:31;;;;;;;3.07;2.87;;;31.50;23.00;;;;;;10438837;28;20255;-83
2021/06/27 18:53:34;;;;;;;3.17;2.70;;;31.30;23.10;;;;;;10432332;28;20225;-84
2021/06/27 18:58:48;;;;;;;3.00;2.80;;;31.10;23.10;;;;;;10435089;28;20232;-84
2021/06/27 19:03:54;;;;;;;3.10;2.87;;;30.90;23.50;;;;;;10428546;28;20804;-83
2021/06/27 19:08:57;;;;;;;2.60;2.50;;;30.80;23.50;;;;;;10441264;28;20986;-83
2021/06/27 19:14:02;;;;;;;2.83;2.63;;;30.60;23.70;;;;;;10435105;28;20221;-82
2021/06/27 19:19:19;;;;;;;2.90;2.70;;;30.40;24.00;;;;;;10427066;28;20209;-80
2021/06/27 19:24:24;;;;;;;2.90;2.70;;;30.30;24.30;;;;;;10430842;28;20282;-80
2021/06/27 19:41:07;;;;;;;2.93;2.73;;;29.90;24.80;;;;;;10355049;28;20235;-78
2021/06/27 19:46:12;;;;;;;3.40;3.10;;;29.70;24.40;;;;;;10430457;28;20574;-78
2021/06/27 19:51:17;;;;;;;2.57;2.47;;;29.50;24.60;;;;;;10429804;28;20218;-78
2021/06/27 19:56:20;;;;;;;2.83;2.73;;;29.30;24.80;;;;;;10435088;28;20567;-78
2021/06/27 20:01:24;;;;;;;2.80;2.50;;;29.10;24.90;;;;;;10432171;28;20232;-78
2021/06/27 20:06:28;;;;;;;2.97;2.77;;;28.90;25.20;;;;;;10437430;28;20268;-77
2021/06/27 20:11:32;;;;;;;2.93;2.73;;;28.80;25.70;;;;;;10421612;28;20221;-78
2021/06/27 20:16:38;;;;;;;2.93;2.73;;;28.70;25.70;;;;;;10427876;28;20603;-78
2021/06/27 20:21:43;;;;;;;3.07;2.90;;;28.50;26.00;;;;;;10429406;28;20225;-78
2021/06/27 20:26:46;;;;;;;2.70;2.60;;;28.40;26.30;;;;;;10426879;28;20237;-77
2021/06/27 20:31:50;;;;;;;3.40;2.80;;;28.40;26.30;;;;;;10425950;28;20217;-77
2021/06/27 20:36:55;;;;;;;3.60;2.57;;;28.20;26.50;;;;;;10428047;28;20237;-77
2021/06/27 20:41:58;;;;;;;2.80;2.70;;;28.10;26.50;;;;;;10430443;28;20225;-77
2021/06/27 20:47:02;;;;;;;3.20;2.70;;;28.00;26.50;;;;;;10431393;28;20217;-76
2021/06/27 20:52:07;;;;;;;2.90;2.70;;;27.80;26.60;;;;;;10433113;28;20218;-76
2021/06/27 20:57:10;;;;;;;2.83;2.73;;;27.70;27.10;;;;;;10433995;28;20586;-76
2021/06/27 21:02:13;;;;;;;3.60;2.90;;;27.60;26.90;;;;;;10431670;28;20601;-76
2021/06/27 21:07:18;;;;;;;3.23;3.00;;;27.50;27.00;;;;;;10432479;28;20217;-76
2021/06/27 21:12:21;;;;;;;3.10;2.90;;;27.40;27.40;;;;;;10422899;28;20221;-77
2021/06/27 21:17:24;;;;;;;3.00;2.80;;;27.20;27.20;;;;;;10424764;28;20240;-77
2021/06/27 21:22:29;;;;;;;3.20;2.90;;;27.10;27.30;;;;;;10425610;28;20232;-78
2021/06/27 21:27:32;;;;;;;2.60;2.50;;;26.90;27.70;;;;;;10423838;28;20238;-78
2021/06/27 21:32:37;;;;;;;2.77;2.63;;;26.80;27.70;;;;;;10423431;28;20222;-78
2021/06/27 21:37:41;;;;;;;3.00;2.80;;;26.80;27.80;;;;;;10418860;28;20229;-78
2021/06/27 21:42:45;;;;;;;2.83;2.63;;;26.60;28.20;;;;;;10429773;28;20612;-78
2021/06/27 21:47:48;;;;;;;2.50;2.40;;;26.30;28.20;;;;;;10424448;28;20588;-78
2021/06/27 21:52:52;;;;;;;2.60;2.40;;;26.20;28.40;;;;;;10422309;28;20693;-78
2021/06/27 21:57:55;;;;;;;3.30;2.60;;;26.10;28.80;;;;;;10433133;28;20786;-78
2021/06/27 22:03:00;;;;;;;2.60;2.50;;;26.10;28.80;;;;;;10427711;28;20229;-78
2021/06/27 22:08:10;;;;;;;3.20;2.40;;;26.10;28.90;;;;;;10426917;28;20280;-78
2021/06/27 22:13:13;;;;;;;2.70;2.47;;;26.00;29.20;;;;;;10426402;28;20217;-78
2021/06/27 22:18:16;;;;;;;3.60;2.63;;;25.90;29.10;;;;;;10421089;28;20351;-78
2021/06/27 22:23:21;;;;;;;3.10;2.90;;;25.80;29.10;;;;;;10426957;28;20600;-78
2021/06/27 22:28:24;;;;;;;2.70;2.50;;;25.70;29.00;;;;;;10423996;28;20229;-77
2021/06/27 22:33:27;;;;;;;3.83;2.90;;;25.60;29.00;;;;;;10426024;28;20236;-78
2021/06/27 22:38:32;;;;;;;2.50;2.40;;;25.60;29.00;;;;;;10421575;28;20233;-78
2021/06/27 22:43:35;;;;;;;4.80;2.50;;;25.60;29.60;;;;;;10426979;28;20237;-78
2021/06/27 22:48:38;;;;;;;3.10;2.90;;;25.50;29.00;;;;;;10423640;28;20234;-78
2021/06/27 22:53:43;;;;;;;3.00;2.80;;;25.30;29.50;;;;;;10428589;28;20605;-78
2021/06/27 22:58:48;;;;;;;3.20;2.90;;;25.00;30.00;;;;;;10423141;28;20235;-78
2021/06/27 23:03:52;;;;;;;2.70;2.50;;;24.80;30.30;;;;;;10421582;28;20221;-78
2021/06/27 23:08:56;;;;;;;3.03;2.83;;;24.70;30.40;;;;;;10427891;28;20221;-78
2021/06/27 23:13:59;;;;;;;2.93;2.73;;;24.60;30.80;;;;;;10431463;28;20217;-78
2021/06/27 23:19:03;;;;;;;2.77;2.60;;;24.40;30.50;;;;;;10426332;28;20225;-78
2021/06/27 23:24:08;;;;;;;3.13;2.80;;;24.30;30.60;;;;;;10434606;28;20222;-77
2021/06/27 23:29:11;;;;;;;3.30;3.00;;;24.20;31.60;;;;;;10432613;28;20736;-77
2021/06/27 23:34:14;;;;;;;5.63;3.20;;;24.20;32.20;;;;;;10433283;28;20705;-78
2021/06/27 23:39:19;;;;;;;3.43;3.07;;;24.20;31.70;;;;;;10428266;28;20218;-77
2021/06/27 23:44:22;;;;;;;3.17;2.97;;;24.20;32.20;;;;;;10432319;28;20237;-78
2021/06/27 23:49:25;;;;;;;3.40;3.07;;;24.20;31.70;;;;;;10429871;28;20241;-78
2021/06/27 23:54:30;;;;;;;3.00;2.80;;;24.10;31.60;;;;;;10434091;28;20238;-78
2021/06/27 23:59:33;;;;;;;4.00;3.50;;;24.10;32.40;;;;;;10427332;28;20728;-78
